createdAt,value
2019-04-03T00:03:56.130Z,13.50
2019-04-03T00:09:00.037Z,13.50
2019-04-03T00:14:03.979Z,13.30
2019-04-03T00:19:08.321Z,13.30
2019-04-03T00:24:12.194Z,13.20
2019-04-03T00:29:15.880Z,13.10
2019-04-03T00:34:19.560Z,12.90
2019-04-03T00:39:24.355Z,12.90
2019-04-03T00:44:28.599Z,12.70
2019-04-03T00:49:32.317Z,12.40
2019-04-03T00:54:36.076Z,12.40
2019-04-03T00:59:40.056Z,12.40
2019-04-03T01:04:44.065Z,12.40
2019-04-03T01:09:47.859Z,12.20
2019-04-03T01:14:51.693Z,11.80
2019-04-03T01:19:55.357Z,12.00
2019-04-03T01:24:59.055Z,12.10
2019-04-03T01:30:03.049Z,11.90
2019-04-03T01:35:09.042Z,11.90
2019-04-03T01:40:12.715Z,11.80
2019-04-03T01:45:16.383Z,12.00
2019-04-03T01:50:20.384Z,12.00
2019-04-03T01:55:24.111Z,12.10
2019-04-03T02:00:27.783Z,11.90
2019-04-03T02:05:31.480Z,11.90
2019-04-03T02:10:35.427Z,11.90
2019-04-03T02:15:39.106Z,11.70
2019-04-03T02:20:42.783Z,11.60
2019-04-03T02:25:46.622Z,11.50
2019-04-03T02:30:50.290Z,11.50
2019-04-03T02:35:54.538Z,11.50
2019-04-03T02:40:58.346Z,11.50
2019-04-03T02:46:02.373Z,11.40
2019-04-03T02:51:06.149Z,11.40
2019-04-03T02:56:13.030Z,11.40
2019-04-03T03:01:15.429Z,11.40
2019-04-03T03:06:19.420Z,11.50
2019-04-03T03:11:24.628Z,11.40
2019-04-03T03:16:29.047Z,11.40
2019-04-03T03:21:33.164Z,11.40
2019-04-03T03:26:37.877Z,11.40
2019-04-03T03:32:05.709Z,11.40
2019-04-03T03:36:48.037Z,11.40
2019-04-03T03:41:55.999Z,11.30
2019-04-03T03:47:01.036Z,11.20
2019-04-03T03:52:05.850Z,11.00
2019-04-03T03:57:10.468Z,10.90
2019-04-03T04:02:14.474Z,10.80
2019-04-03T04:07:18.245Z,10.70
2019-04-03T04:12:22.186Z,10.70
2019-04-03T04:17:26.001Z,10.90
2019-04-03T04:22:30.291Z,10.90
2019-04-03T04:27:37.908Z,11.00
2019-04-03T04:32:40.032Z,11.20
2019-04-03T04:37:43.720Z,11.20
2019-04-03T04:42:47.912Z,11.30
2019-04-03T04:47:51.685Z,11.50
2019-04-03T04:52:56.712Z,11.60
2019-04-03T04:58:01.154Z,11.50
2019-04-03T05:03:04.856Z,11.50
2019-04-03T05:08:11.601Z,11.40
2019-04-03T05:13:16.215Z,11.40
2019-04-03T05:18:20.444Z,11.40
2019-04-03T05:23:25.602Z,11.40
2019-04-03T05:28:29.910Z,11.40
2019-04-03T05:33:33.606Z,11.50
2019-04-03T05:38:38.577Z,11.70
2019-04-03T05:43:43.193Z,11.70
2019-04-03T05:48:48.001Z,11.70
2019-04-03T05:53:54.164Z,11.70
2019-04-03T05:59:01.015Z,11.90
2019-04-03T06:04:04.057Z,12.00
2019-04-03T06:09:08.162Z,12.20
2019-04-03T06:14:11.942Z,12.20
2019-04-03T06:19:15.692Z,12.30
2019-04-03T06:24:19.627Z,12.40
2019-04-03T06:29:23.731Z,12.50
2019-04-03T06:34:27.593Z,12.50
2019-04-03T06:39:32.321Z,12.70
2019-04-03T06:44:36.134Z,12.80
2019-04-03T06:49:40.999Z,12.90
2019-04-03T06:54:45.206Z,13.20
2019-04-03T06:59:49.485Z,13.40
2019-04-03T07:04:53.413Z,13.60
2019-04-03T07:09:57.411Z,13.70
2019-04-03T07:15:01.496Z,13.90
2019-04-03T07:20:13.451Z,14.40
2019-04-03T07:25:11.347Z,14.70
2019-04-03T07:30:17.694Z,14.60
2019-04-03T07:35:20.996Z,14.60
2019-04-03T07:40:24.925Z,14.90
2019-04-03T07:45:28.639Z,15.00
2019-04-03T07:51:05.260Z,15.50
2019-04-03T07:56:30.236Z,15.80
2019-04-03T08:01:41.852Z,15.70
2019-04-03T08:07:18.855Z,16.70
2019-04-03T08:12:56.350Z,17.60
2019-04-03T08:18:54.999Z,18.90
2019-04-03T08:24:23.587Z,20.10
2019-04-03T08:30:22.333Z,21.60
2019-04-03T08:36:27.118Z,21.60
2019-04-03T08:47:46.954Z,19.10
2019-04-03T08:54:09.335Z,20.50
2019-04-03T08:59:33.296Z,20.70
2019-04-03T09:05:05.721Z,21.80
2019-04-03T09:10:32.659Z,22.50
2019-04-03T09:22:54.464Z,18.90
2019-04-03T09:35:05.506Z,19.60
2019-04-03T09:41:21.820Z,23.00
2019-04-03T09:47:26.145Z,24.10
2019-04-03T10:05:00.169Z,25.90
2019-04-03T10:10:56.558Z,26.20
2019-04-03T10:16:48.622Z,27.10
2019-04-03T10:29:19.526Z,36.50
2019-04-03T10:34:31.065Z,30.30
2019-04-03T11:03:50.835Z,35.00
2019-04-03T11:09:13.389Z,35.70
2019-04-03T11:15:02.703Z,34.90
2019-04-03T11:27:13.039Z,37.80
2019-04-03T11:32:14.140Z,39.00
2019-04-03T11:37:18.522Z,37.00
2019-04-03T11:42:25.359Z,31.20
2019-04-03T11:47:27.991Z,28.00
2019-04-03T11:52:31.977Z,25.20
2019-04-03T11:57:35.700Z,25.10
2019-04-03T12:02:40.370Z,25.10
2019-04-03T12:07:45.585Z,26.10
2019-04-03T12:12:49.430Z,28.30
2019-04-03T12:17:53.360Z,28.90
2019-04-03T12:22:57.178Z,28.40
2019-04-03T12:28:01.119Z,28.40
2019-04-03T12:33:05.182Z,29.70
2019-04-03T12:38:09.816Z,28.90
2019-04-03T12:43:13.656Z,30.00
2019-04-03T12:48:18.462Z,33.10
2019-04-03T12:53:23.418Z,33.10
2019-04-03T12:58:27.808Z,30.40
2019-04-03T13:03:31.968Z,26.70
2019-04-03T13:08:35.737Z,25.40
2019-04-03T13:13:40.107Z,24.60
2019-04-03T13:18:44.116Z,24.50
2019-04-03T13:23:47.929Z,24.70
2019-04-03T13:28:52.730Z,25.70
2019-04-03T13:33:56.541Z,25.00
2019-04-03T13:39:01.581Z,27.10
2019-04-03T13:44:05.484Z,26.40
2019-04-03T13:49:09.447Z,25.30
2019-04-03T13:54:13.618Z,24.40
2019-04-03T13:59:17.730Z,24.40
2019-04-03T14:04:22.852Z,24.50
2019-04-03T14:09:27.367Z,26.40
2019-04-03T14:14:31.115Z,25.90
2019-04-03T14:19:43.255Z,25.50
2019-04-03T14:24:45.152Z,26.00
2019-04-03T14:29:46.328Z,25.80
2019-04-03T14:34:50.364Z,25.00
2019-04-03T14:39:54.266Z,26.10
2019-04-03T14:44:57.980Z,26.20
2019-04-03T14:50:02.770Z,25.70
2019-04-03T14:55:18.148Z,25.40
2019-04-03T15:00:26.089Z,25.60
2019-04-03T15:05:21.022Z,26.50
2019-04-03T15:10:25.119Z,25.70
2019-04-03T15:15:29.000Z,24.80
2019-04-03T15:20:33.813Z,24.40
2019-04-03T15:25:38.453Z,24.70
2019-04-03T15:30:43.471Z,24.60
2019-04-03T15:35:47.601Z,24.60
2019-04-03T15:40:51.301Z,24.20
2019-04-03T15:45:56.620Z,23.90
2019-04-03T15:51:00.482Z,24.40
2019-04-03T15:56:04.170Z,24.80
2019-04-03T16:01:09.207Z,24.10
2019-04-03T16:06:13.397Z,23.90
2019-04-03T16:11:17.227Z,23.40
2019-04-03T16:16:21.029Z,23.10
2019-04-03T16:21:25.064Z,22.70
2019-04-03T16:26:28.870Z,22.00
2019-04-03T16:31:32.864Z,21.80
2019-04-03T16:36:36.670Z,21.60
2019-04-03T16:41:42.486Z,21.40
2019-04-03T16:46:45.753Z,21.20
2019-04-03T16:51:49.456Z,20.90
2019-04-03T16:56:53.150Z,20.40
2019-04-03T17:01:57.806Z,20.20
2019-04-03T17:07:01.817Z,20.00
2019-04-03T17:12:05.558Z,20.00
2019-04-03T17:17:13.265Z,19.70
2019-04-03T17:22:14.752Z,19.40
2019-04-03T17:27:18.811Z,19.20
2019-04-03T17:32:33.258Z,19.00
2019-04-03T17:37:37.553Z,18.80
2019-04-03T17:43:27.497Z,18.60
2019-04-03T17:54:30.736Z,18.20
2019-04-03T17:59:59.101Z,18.10
2019-04-03T18:05:44.449Z,18.00
2019-04-03T18:10:48.675Z,17.80
2019-04-03T18:15:52.395Z,17.70
2019-04-03T18:20:56.165Z,17.60
2019-04-03T18:26:00.259Z,17.50
2019-04-03T18:31:04.018Z,17.40
2019-04-03T18:36:07.746Z,17.40
2019-04-03T18:41:11.462Z,17.30
2019-04-03T18:46:21.975Z,17.20
2019-04-03T18:51:20.754Z,17.10
2019-04-03T18:56:24.998Z,16.90
2019-04-03T19:01:28.738Z,16.80
2019-04-03T19:06:32.453Z,16.70
2019-04-03T19:11:36.143Z,16.60
2019-04-03T19:16:45.178Z,16.50
2019-04-03T19:21:46.175Z,16.50
2019-04-03T19:26:50.059Z,16.50
2019-04-03T19:31:53.789Z,16.40
2019-04-03T19:36:57.656Z,16.30
2019-04-03T19:42:01.698Z,16.20
2019-04-03T19:47:05.599Z,16.10
2019-04-03T19:52:09.426Z,16.10
2019-04-03T19:57:13.223Z,16.00
2019-04-03T20:02:16.997Z,15.90
2019-04-03T20:07:20.689Z,15.80
2019-04-03T20:12:24.427Z,15.70
2019-04-03T20:17:28.162Z,15.70
2019-04-03T20:22:32.226Z,15.60
2019-04-03T20:27:36.159Z,15.50
2019-04-03T20:32:40.976Z,15.40
2019-04-03T20:37:45.283Z,15.20
2019-04-03T20:42:49.069Z,15.10
2019-04-03T20:47:52.813Z,15.10
2019-04-03T20:52:57.240Z,15.10
2019-04-03T20:58:01.082Z,15.00
2019-04-03T21:03:05.056Z,15.00
2019-04-03T21:08:08.993Z,14.90
2019-04-03T21:13:15.220Z,14.80
2019-04-03T21:18:18.914Z,14.70
2019-04-03T21:23:23.962Z,14.60
2019-04-03T21:28:27.781Z,14.60
2019-04-03T21:33:31.767Z,14.40
2019-04-03T21:38:35.574Z,14.30
2019-04-03T21:43:39.283Z,14.20
2019-04-03T21:48:44.789Z,14.30
2019-04-03T21:53:48.479Z,14.20
2019-04-03T21:58:52.184Z,14.00
2019-04-03T22:03:55.963Z,14.00
2019-04-03T22:09:00.743Z,14.00
2019-04-03T22:14:04.993Z,13.90
2019-04-03T22:19:08.760Z,13.90
2019-04-03T22:24:12.720Z,13.80
2019-04-03T22:29:19.615Z,13.80
2019-04-03T22:34:21.870Z,13.80
2019-04-03T22:39:25.907Z,13.70
2019-04-03T22:44:29.632Z,13.60
2019-04-03T22:49:34.019Z,13.60
2019-04-03T22:54:38.154Z,13.60
2019-04-03T22:59:41.859Z,13.50
2019-04-03T23:04:46.383Z,13.40
2019-04-03T23:09:50.290Z,13.20
2019-04-03T23:14:54.215Z,13.20
2019-04-03T23:19:57.977Z,13.20
2019-04-03T23:25:01.661Z,13.10
2019-04-03T23:30:05.499Z,13.00
2019-04-03T23:35:09.531Z,12.90
2019-04-03T23:40:13.440Z,12.90
2019-04-03T23:45:17.995Z,12.80
2019-04-03T23:50:22.553Z,12.80
2019-04-03T23:55:26.307Z,12.80
